createdAt,value
2022-09-30T00:00:23.302Z,7.70
2022-09-30T00:02:50.062Z,7.70
2022-09-30T00:05:16.980Z,7.70
2022-09-30T00:07:43.739Z,7.70
2022-09-30T00:10:10.498Z,7.60
2022-09-30T00:12:37.358Z,7.60
2022-09-30T00:15:04.473Z,7.50
2022-09-30T00:17:31.187Z,7.50
2022-09-30T00:19:57.889Z,7.50
2022-09-30T00:22:24.671Z,7.40
2022-09-30T00:24:51.310Z,7.40
2022-09-30T00:27:18.300Z,7.40
2022-09-30T00:29:45.681Z,7.30
2022-09-30T00:32:12.375Z,7.30
2022-09-30T00:34:39.031Z,7.30
2022-09-30T00:37:05.962Z,7.30
2022-09-30T00:39:32.652Z,7.30
2022-09-30T00:42:01.161Z,7.30
2022-09-30T00:44:39.964Z,7.30
2022-09-30T00:47:28.651Z,7.30
2022-09-30T00:49:55.872Z,7.30
2022-09-30T00:52:22.589Z,7.20
2022-09-30T00:54:50.887Z,7.20
2022-09-30T00:57:17.578Z,7.10
2022-09-30T00:59:47.163Z,7.10
2022-09-30T01:02:14.572Z,7.20
2022-09-30T01:04:41.513Z,7.10
2022-09-30T01:07:08.716Z,7.10
2022-09-30T01:09:36.058Z,7.10
2022-09-30T01:12:14.360Z,7.00
2022-09-30T01:14:41.121Z,7.00
2022-09-30T01:17:47.097Z,7.00
2022-09-30T01:20:40.227Z,7.00
2022-09-30T01:23:41.265Z,7.10
2022-09-30T01:26:40.488Z,7.10
2022-09-30T01:29:10.224Z,7.10
2022-09-30T01:31:45.722Z,7.10
2022-09-30T01:34:30.629Z,7.20
2022-09-30T01:37:07.937Z,7.20
2022-09-30T01:39:51.648Z,7.30
2022-09-30T01:42:26.226Z,7.40
2022-09-30T01:45:18.973Z,7.40
2022-09-30T01:47:51.409Z,7.50
2022-09-30T01:50:20.086Z,7.60
2022-09-30T01:53:03.539Z,7.70
2022-09-30T01:55:38.975Z,7.70
2022-09-30T01:58:10.254Z,7.80
2022-09-30T02:00:38.019Z,7.90
2022-09-30T02:03:28.935Z,7.90
2022-09-30T02:06:02.371Z,7.90
2022-09-30T02:08:41.505Z,7.90
2022-09-30T02:11:13.626Z,7.90
2022-09-30T02:13:53.731Z,7.80
2022-09-30T02:16:28.226Z,7.80
2022-09-30T02:19:26.852Z,7.70
2022-09-30T02:21:57.352Z,7.70
2022-09-30T02:24:25.352Z,7.70
2022-09-30T02:26:54.111Z,7.70
2022-09-30T02:29:23.974Z,7.60
2022-09-30T02:31:52.815Z,7.50
2022-09-30T02:34:27.986Z,7.50
2022-09-30T02:37:17.596Z,7.50
2022-09-30T02:39:52.564Z,7.40
2022-09-30T02:42:22.275Z,7.30
2022-09-30T02:44:52.328Z,7.40
2022-09-30T02:47:31.280Z,7.30
2022-09-30T02:50:16.283Z,7.30
2022-09-30T02:53:04.203Z,7.20
2022-09-30T02:55:49.850Z,7.20
2022-09-30T02:58:17.094Z,7.30
2022-09-30T03:00:43.786Z,7.30
2022-09-30T03:03:14.435Z,7.40
2022-09-30T03:05:41.072Z,7.40
2022-09-30T03:08:08.050Z,7.50
2022-09-30T03:10:34.792Z,7.60
2022-09-30T03:13:14.453Z,7.70
2022-09-30T03:16:03.587Z,7.80
2022-09-30T03:18:57.247Z,8.00
2022-09-30T03:21:52.052Z,8.10
2022-09-30T03:24:31.838Z,8.20
2022-09-30T03:27:16.705Z,8.20
2022-09-30T03:29:56.723Z,8.30
2022-09-30T03:32:46.854Z,8.40
2022-09-30T03:35:31.707Z,8.50
2022-09-30T03:38:10.650Z,8.50
2022-09-30T03:40:55.951Z,8.60
2022-09-30T03:43:33.286Z,8.60
2022-09-30T03:46:01.726Z,8.70
2022-09-30T03:48:28.470Z,8.70
2022-09-30T03:50:55.198Z,8.80
2022-09-30T03:53:21.981Z,8.80
2022-09-30T03:55:50.467Z,8.90
2022-09-30T03:58:17.975Z,9.00
2022-09-30T04:00:47.873Z,9.00
2022-09-30T04:03:15.182Z,9.10
2022-09-30T04:05:42.621Z,9.10
2022-09-30T04:08:10.187Z,9.10
2022-09-30T04:10:36.939Z,9.20
2022-09-30T04:13:03.758Z,9.20
2022-09-30T04:15:30.413Z,9.30
2022-09-30T04:17:57.055Z,9.30
2022-09-30T04:20:23.800Z,9.30
2022-09-30T04:22:50.433Z,9.40
2022-09-30T04:25:17.120Z,9.40
2022-09-30T04:27:43.787Z,9.50
2022-09-30T04:30:11.047Z,9.50
2022-09-30T04:32:37.758Z,9.60
2022-09-30T04:35:05.023Z,9.60
2022-09-30T04:37:32.777Z,9.70
2022-09-30T04:40:00.115Z,9.70
2022-09-30T04:42:26.786Z,9.70
2022-09-30T04:44:53.558Z,9.80
2022-09-30T04:47:20.216Z,9.80
2022-09-30T04:49:50.390Z,9.80
2022-09-30T04:52:17.235Z,9.90
2022-09-30T04:54:44.103Z,9.90
2022-09-30T04:57:10.856Z,9.90
2022-09-30T04:59:37.573Z,9.90
2022-09-30T05:02:05.464Z,10.00
2022-09-30T05:04:33.422Z,10.00
2022-09-30T05:07:01.890Z,10.00
2022-09-30T05:09:28.696Z,10.10
2022-09-30T05:11:55.435Z,10.10
2022-09-30T05:14:22.203Z,10.20
2022-09-30T05:16:48.878Z,10.20
2022-09-30T05:19:15.583Z,10.20
2022-09-30T05:21:44.905Z,10.20
2022-09-30T05:24:11.959Z,10.20
2022-09-30T05:26:40.203Z,10.20
2022-09-30T05:29:07.432Z,10.20
2022-09-30T05:31:34.332Z,10.20
2022-09-30T05:34:01.588Z,10.30
2022-09-30T05:36:28.974Z,10.30
2022-09-30T05:38:55.832Z,10.30
2022-09-30T05:41:23.038Z,10.30
2022-09-30T05:43:50.257Z,10.30
2022-09-30T05:46:17.839Z,10.30
2022-09-30T05:48:44.735Z,10.30
2022-09-30T05:51:11.515Z,10.30
2022-09-30T05:53:38.655Z,10.30
2022-09-30T05:56:07.344Z,10.30
2022-09-30T05:58:34.198Z,10.40
2022-09-30T06:01:14.545Z,10.40
2022-09-30T06:03:43.058Z,10.40
2022-09-30T06:06:10.542Z,10.40
2022-09-30T06:08:37.468Z,10.40
2022-09-30T06:11:11.811Z,10.40
2022-09-30T06:13:39.850Z,10.30
2022-09-30T06:16:07.230Z,10.40
2022-09-30T06:18:34.356Z,10.40
2022-09-30T06:21:02.682Z,10.40
2022-09-30T06:23:30.483Z,10.40
2022-09-30T06:25:57.305Z,10.50
2022-09-30T06:28:24.399Z,10.50
2022-09-30T06:30:51.189Z,10.50
2022-09-30T06:33:17.868Z,10.50
2022-09-30T06:35:47.443Z,10.40
2022-09-30T06:38:17.886Z,10.50
2022-09-30T06:40:44.969Z,10.50
2022-09-30T06:43:11.965Z,10.60
2022-09-30T06:45:38.822Z,10.60
2022-09-30T06:48:06.049Z,10.60
2022-09-30T06:50:33.385Z,10.70
2022-09-30T06:53:04.040Z,10.70
2022-09-30T06:55:30.977Z,10.70
2022-09-30T06:57:57.682Z,10.70
2022-09-30T07:00:24.939Z,10.70
2022-09-30T07:02:51.673Z,10.70
2022-09-30T07:05:19.042Z,10.70
2022-09-30T07:07:45.922Z,10.80
2022-09-30T07:10:13.122Z,10.80
2022-09-30T07:12:41.059Z,10.80
2022-09-30T07:15:12.817Z,10.90
2022-09-30T07:17:40.908Z,10.90
2022-09-30T07:20:08.433Z,10.90
2022-09-30T07:22:35.152Z,11.00
2022-09-30T07:25:03.708Z,11.10
2022-09-30T07:27:32.649Z,11.20
2022-09-30T07:30:25.870Z,11.20
2022-09-30T07:32:46.980Z,11.20
2022-09-30T07:35:13.663Z,11.30
2022-09-30T07:37:40.703Z,11.40
2022-09-30T07:40:08.264Z,11.40
2022-09-30T07:42:37.774Z,11.40
2022-09-30T07:45:05.085Z,11.40
2022-09-30T07:47:31.737Z,11.40
2022-09-30T07:50:00.401Z,11.40
2022-09-30T07:52:27.101Z,11.30
2022-09-30T07:54:54.051Z,11.40
2022-09-30T07:57:21.678Z,11.40
2022-09-30T07:59:48.439Z,11.40
2022-09-30T08:02:16.818Z,11.40
2022-09-30T08:04:44.518Z,11.50
2022-09-30T08:07:11.844Z,11.60
2022-09-30T08:09:38.764Z,11.70
2022-09-30T08:12:05.574Z,11.80
2022-09-30T08:14:32.313Z,12.00
2022-09-30T08:17:00.637Z,12.20
2022-09-30T08:19:28.644Z,12.30
2022-09-30T08:21:55.612Z,12.60
2022-09-30T08:24:23.498Z,12.80
2022-09-30T08:26:51.107Z,13.00
2022-09-30T08:29:20.716Z,13.10
2022-09-30T08:31:57.002Z,13.30
2022-09-30T08:34:24.190Z,13.50
2022-09-30T08:36:50.932Z,13.70
2022-09-30T08:39:17.655Z,13.90
2022-09-30T08:42:02.172Z,14.10
2022-09-30T08:44:43.321Z,14.30
2022-09-30T08:47:28.091Z,14.60
2022-09-30T08:50:13.365Z,14.70
2022-09-30T08:53:01.564Z,14.90
2022-09-30T08:55:42.187Z,15.10
2022-09-30T08:58:35.894Z,15.30
2022-09-30T09:01:07.204Z,15.40
2022-09-30T09:03:34.248Z,15.40
2022-09-30T09:06:07.333Z,15.50
2022-09-30T09:08:36.987Z,15.40
2022-09-30T09:11:09.518Z,15.50
2022-09-30T09:13:36.159Z,15.60
2022-09-30T09:16:17.687Z,15.60
2022-09-30T09:18:53.310Z,15.70
2022-09-30T09:21:57.176Z,15.80
2022-09-30T09:24:24.497Z,15.80
2022-09-30T09:26:53.047Z,15.90
2022-09-30T09:29:40.796Z,15.90
2022-09-30T09:32:15.561Z,16.00
2022-09-30T09:34:42.415Z,16.10
2022-09-30T09:37:46.714Z,16.20
2022-09-30T09:40:34.329Z,16.20
2022-09-30T09:43:26.327Z,16.20
2022-09-30T09:46:20.495Z,16.30
2022-09-30T09:48:47.413Z,16.20
2022-09-30T09:51:25.116Z,16.20
2022-09-30T09:53:58.110Z,16.00
2022-09-30T09:56:32.640Z,15.90
2022-09-30T09:59:18.129Z,15.90
2022-09-30T10:01:52.012Z,15.90
2022-09-30T10:04:21.984Z,16.10
2022-09-30T10:06:55.665Z,16.20
2022-09-30T10:09:29.523Z,16.40
2022-09-30T10:12:05.536Z,16.50
2022-09-30T10:14:47.896Z,16.50
2022-09-30T10:17:31.675Z,16.60
2022-09-30T10:20:19.036Z,16.60
2022-09-30T10:22:47.009Z,16.70
2022-09-30T10:25:21.630Z,16.70
2022-09-30T10:27:49.325Z,16.70
2022-09-30T10:30:44.753Z,16.70
2022-09-30T10:33:14.906Z,16.60
2022-09-30T10:36:14.877Z,16.60
2022-09-30T10:39:06.796Z,16.70
2022-09-30T10:41:35.439Z,16.70
2022-09-30T10:44:04.546Z,16.70
2022-09-30T10:46:37.633Z,16.80
2022-09-30T10:49:37.375Z,16.90
2022-09-30T10:52:04.111Z,16.90
2022-09-30T10:54:42.751Z,16.90
2022-09-30T10:57:35.228Z,17.00
2022-09-30T11:00:14.781Z,17.10
2022-09-30T11:03:14.247Z,17.30
2022-09-30T11:05:42.738Z,17.50
2022-09-30T11:08:18.621Z,17.60
2022-09-30T11:11:10.589Z,17.60
2022-09-30T11:13:57.251Z,17.70
2022-09-30T11:16:42.176Z,17.70
2022-09-30T11:19:18.489Z,17.50
2022-09-30T11:21:51.543Z,17.50
2022-09-30T11:24:24.750Z,17.60
2022-09-30T11:27:06.410Z,17.90
2022-09-30T11:30:11.108Z,18.30
2022-09-30T11:32:37.745Z,18.50
2022-09-30T11:35:52.516Z,18.60
2022-09-30T11:38:36.745Z,18.70
2022-09-30T11:41:09.608Z,18.60
2022-09-30T11:43:50.382Z,18.60
2022-09-30T11:46:32.099Z,18.50
2022-09-30T11:49:10.995Z,18.40
2022-09-30T11:51:49.362Z,18.50
2022-09-30T11:54:27.250Z,18.60
2022-09-30T11:57:20.006Z,18.50
2022-09-30T11:59:52.700Z,18.40
2022-09-30T12:02:26.766Z,18.10
2022-09-30T12:04:56.135Z,17.90
2022-09-30T12:07:27.021Z,17.90
2022-09-30T12:10:01.581Z,17.70
2022-09-30T12:12:28.274Z,17.80
2022-09-30T12:15:05.058Z,17.70
2022-09-30T12:17:43.108Z,17.60
2022-09-30T12:20:32.026Z,17.70
2022-09-30T12:23:07.389Z,17.60
2022-09-30T12:25:42.187Z,17.70
2022-09-30T12:28:52.771Z,17.70
2022-09-30T12:31:40.758Z,17.80
2022-09-30T12:34:31.807Z,17.90
2022-09-30T12:37:02.076Z,18.10
2022-09-30T12:39:45.359Z,18.30
2022-09-30T12:42:12.313Z,18.30
2022-09-30T12:44:52.516Z,18.80
2022-09-30T12:47:24.993Z,19.10
2022-09-30T12:49:54.197Z,19.20
2022-09-30T12:52:20.929Z,19.60
2022-09-30T12:55:19.892Z,20.00
2022-09-30T12:57:46.735Z,19.90
2022-09-30T13:00:14.958Z,19.60
2022-09-30T13:02:43.778Z,19.20
2022-09-30T13:05:32.526Z,18.90
2022-09-30T13:08:25.066Z,18.60
2022-09-30T13:10:59.727Z,18.50
2022-09-30T13:13:29.037Z,18.30
2022-09-30T13:16:02.861Z,18.10
2022-09-30T13:18:32.759Z,17.90
2022-09-30T13:21:05.786Z,17.60
2022-09-30T13:23:35.486Z,17.60
2022-09-30T13:26:02.998Z,17.50
2022-09-30T13:28:32.092Z,17.40
2022-09-30T13:31:19.305Z,17.30
2022-09-30T13:34:13.266Z,17.20
2022-09-30T13:36:52.153Z,17.10
2022-09-30T13:39:34.572Z,17.10
2022-09-30T13:42:07.324Z,17.00
2022-09-30T13:44:42.379Z,17.00
2022-09-30T13:47:17.060Z,16.90
2022-09-30T13:49:58.037Z,16.80
2022-09-30T13:52:27.928Z,16.80
2022-09-30T13:54:55.234Z,16.70
2022-09-30T13:57:28.767Z,16.60
2022-09-30T14:00:18.513Z,16.60
2022-09-30T14:03:03.993Z,16.60
2022-09-30T14:06:30.101Z,16.60
2022-09-30T14:09:38.874Z,16.60
2022-09-30T14:12:24.532Z,16.50
2022-09-30T14:15:12.745Z,16.40
2022-09-30T14:18:19.713Z,16.40
2022-09-30T14:21:07.135Z,16.30
2022-09-30T14:23:33.798Z,16.30
2022-09-30T14:26:12.064Z,16.30
2022-09-30T14:28:56.947Z,16.30
2022-09-30T14:31:24.110Z,16.20
2022-09-30T14:33:52.033Z,16.20
2022-09-30T14:36:20.220Z,16.20
2022-09-30T14:38:49.183Z,16.20
2022-09-30T14:41:20.755Z,16.10
2022-09-30T14:43:49.303Z,16.10
2022-09-30T14:46:33.940Z,16.10
2022-09-30T14:49:06.054Z,16.10
2022-09-30T14:51:43.471Z,16.10
2022-09-30T14:54:36.733Z,16.10
2022-09-30T14:57:14.119Z,16.00
2022-09-30T14:59:43.803Z,16.00
2022-09-30T15:02:20.310Z,16.00
2022-09-30T15:04:57.009Z,16.00
2022-09-30T15:07:25.992Z,16.00
2022-09-30T15:09:53.503Z,15.90
2022-09-30T15:12:22.602Z,15.90
2022-09-30T15:14:57.027Z,15.70
2022-09-30T15:17:26.730Z,15.60
2022-09-30T15:19:55.672Z,15.50
2022-09-30T15:22:23.115Z,15.40
2022-09-30T15:24:50.437Z,15.20
2022-09-30T15:27:22.253Z,15.10
2022-09-30T15:30:00.369Z,14.90
2022-09-30T15:32:28.530Z,14.70
2022-09-30T15:34:58.443Z,14.50
2022-09-30T15:37:29.962Z,14.40
2022-09-30T15:40:15.129Z,14.20
2022-09-30T15:43:03.361Z,14.00
2022-09-30T15:45:34.641Z,13.80
2022-09-30T15:48:07.264Z,13.60
2022-09-30T15:50:43.048Z,13.60
2022-09-30T15:53:24.362Z,13.50
2022-09-30T15:55:56.079Z,13.50
2022-09-30T15:58:32.836Z,13.40
2022-09-30T16:01:16.185Z,13.40
2022-09-30T16:03:50.116Z,13.30
2022-09-30T16:06:19.562Z,13.30
2022-09-30T16:09:13.919Z,13.30
2022-09-30T16:11:42.049Z,13.30
2022-09-30T16:14:10.661Z,13.20
2022-09-30T16:16:39.501Z,13.30
2022-09-30T16:19:10.339Z,13.20
2022-09-30T16:21:45.416Z,13.20
2022-09-30T16:24:28.817Z,13.20
2022-09-30T16:26:58.820Z,13.20
2022-09-30T16:29:26.437Z,13.20
2022-09-30T16:31:54.827Z,13.20
2022-09-30T16:34:26.813Z,13.20
2022-09-30T16:37:10.807Z,13.20
2022-09-30T16:39:37.824Z,13.20
2022-09-30T16:42:05.057Z,13.20
2022-09-30T16:44:35.623Z,13.20
2022-09-30T16:47:02.785Z,13.20
2022-09-30T16:49:29.632Z,13.20
2022-09-30T16:51:56.566Z,13.20
2022-09-30T16:54:23.694Z,13.10
2022-09-30T16:56:50.630Z,13.10
2022-09-30T16:59:18.861Z,13.10
2022-09-30T17:01:45.773Z,13.00
2022-09-30T17:04:15.255Z,13.00
2022-09-30T17:06:43.982Z,13.00
2022-09-30T17:09:13.989Z,13.00
2022-09-30T17:11:40.875Z,13.00
2022-09-30T17:14:07.870Z,13.00
2022-09-30T17:16:36.388Z,12.90
2022-09-30T17:19:03.854Z,13.00
2022-09-30T17:21:30.749Z,13.00
2022-09-30T17:23:58.962Z,12.90
2022-09-30T17:26:25.803Z,12.90
2022-09-30T17:28:55.410Z,12.90
2022-09-30T17:31:24.599Z,12.90
2022-09-30T17:33:51.923Z,12.90
2022-09-30T17:36:19.145Z,12.90
2022-09-30T17:38:46.401Z,12.90
2022-09-30T17:41:31.947Z,12.90
2022-09-30T17:44:02.502Z,12.90
2022-09-30T17:46:37.775Z,12.90
2022-09-30T17:49:04.653Z,12.90
2022-09-30T17:51:32.101Z,12.90
2022-09-30T17:53:59.023Z,12.90
2022-09-30T17:56:25.871Z,12.90
2022-09-30T17:58:52.775Z,12.90
2022-09-30T18:01:20.754Z,12.90
2022-09-30T18:03:47.830Z,13.00
2022-09-30T18:06:14.786Z,13.00
2022-09-30T18:08:41.675Z,13.00
2022-09-30T18:11:08.717Z,13.00
2022-09-30T18:13:35.589Z,13.00
2022-09-30T18:16:05.625Z,13.00
2022-09-30T18:18:34.398Z,13.00
2022-09-30T18:21:03.168Z,13.10
2022-09-30T18:23:29.981Z,13.10
2022-09-30T18:25:58.017Z,13.10
2022-09-30T18:28:24.813Z,13.10
2022-09-30T18:30:51.621Z,13.20
2022-09-30T18:33:21.577Z,13.20
2022-09-30T18:35:48.634Z,13.20
2022-09-30T18:38:15.812Z,13.30
2022-09-30T18:40:46.061Z,13.20
2022-09-30T18:43:14.083Z,13.30
2022-09-30T18:45:43.544Z,13.30
2022-09-30T18:48:11.310Z,13.30
2022-09-30T18:50:38.845Z,13.30
2022-09-30T18:53:09.772Z,13.30
2022-09-30T18:55:38.030Z,13.40
2022-09-30T18:58:04.878Z,13.40
2022-09-30T19:00:31.840Z,13.40
2022-09-30T19:02:58.818Z,13.40
2022-09-30T19:05:25.839Z,13.40
2022-09-30T19:07:53.606Z,13.50
2022-09-30T19:10:20.582Z,13.50
2022-09-30T19:12:47.579Z,13.50
2022-09-30T19:15:17.430Z,13.60
2022-09-30T19:17:45.339Z,13.60
2022-09-30T19:20:12.825Z,13.60
2022-09-30T19:22:39.892Z,13.60
2022-09-30T19:25:11.881Z,13.70
2022-09-30T19:27:39.319Z,13.70
2022-09-30T19:30:06.782Z,13.70
2022-09-30T19:32:36.136Z,13.70
2022-09-30T19:35:06.674Z,13.70
2022-09-30T19:37:35.076Z,13.80
2022-09-30T19:40:15.474Z,13.80
2022-09-30T19:42:47.660Z,13.80
2022-09-30T19:45:16.712Z,13.90
2022-09-30T19:47:44.165Z,13.80
2022-09-30T19:50:11.231Z,13.90
2022-09-30T19:52:50.581Z,13.90
2022-09-30T19:55:22.853Z,13.90
2022-09-30T19:57:50.247Z,13.90
2022-09-30T20:00:17.542Z,14.00
2022-09-30T20:02:45.144Z,14.00
2022-09-30T20:05:12.555Z,14.00
2022-09-30T20:07:39.913Z,14.00
2022-09-30T20:10:07.476Z,14.10
2022-09-30T20:12:34.474Z,14.10
2022-09-30T20:15:19.813Z,14.10
2022-09-30T20:17:46.745Z,14.10
2022-09-30T20:20:32.874Z,14.10
2022-09-30T20:23:03.637Z,14.20
2022-09-30T20:25:32.697Z,14.10
2022-09-30T20:27:59.651Z,14.20
2022-09-30T20:30:29.969Z,14.20
2022-09-30T20:32:57.250Z,14.20
2022-09-30T20:35:24.923Z,14.20
2022-09-30T20:37:51.979Z,14.30
2022-09-30T20:40:19.633Z,14.30
2022-09-30T20:42:46.643Z,14.30
2022-09-30T20:45:18.226Z,14.30
2022-09-30T20:47:47.673Z,14.30
2022-09-30T20:50:14.538Z,14.40
2022-09-30T20:52:41.735Z,14.40
2022-09-30T20:55:09.836Z,14.40
2022-09-30T20:57:37.088Z,14.40
2022-09-30T21:00:04.672Z,14.40
2022-09-30T21:02:32.101Z,14.50
2022-09-30T21:04:59.619Z,14.50
2022-09-30T21:07:26.923Z,14.50
2022-09-30T21:09:53.966Z,14.50
2022-09-30T21:12:21.957Z,14.50
2022-09-30T21:14:49.006Z,14.50
2022-09-30T21:17:15.817Z,14.60
2022-09-30T21:19:43.567Z,14.60
2022-09-30T21:22:11.316Z,14.60
2022-09-30T21:24:38.607Z,14.70
2022-09-30T21:27:06.297Z,14.70
2022-09-30T21:29:33.308Z,14.70
2022-09-30T21:32:00.498Z,14.70
2022-09-30T21:34:27.334Z,14.80
2022-09-30T21:36:54.305Z,14.80
2022-09-30T21:39:21.115Z,14.90
2022-09-30T21:41:50.870Z,14.90
2022-09-30T21:44:18.153Z,14.90
2022-09-30T21:46:50.322Z,15.00
2022-09-30T21:49:21.836Z,15.10
2022-09-30T21:51:49.484Z,15.10
2022-09-30T21:54:17.442Z,15.10
2022-09-30T21:56:46.829Z,15.10
2022-09-30T21:59:13.793Z,15.10
2022-09-30T22:01:41.053Z,15.10
2022-09-30T22:04:08.236Z,15.20
2022-09-30T22:06:35.138Z,15.10
2022-09-30T22:09:02.139Z,15.20
2022-09-30T22:11:30.359Z,15.20
2022-09-30T22:13:57.863Z,15.20
2022-09-30T22:16:27.464Z,15.20
2022-09-30T22:18:55.031Z,15.20
2022-09-30T22:21:22.098Z,15.30
2022-09-30T22:23:49.795Z,15.30
2022-09-30T22:26:18.311Z,15.30
2022-09-30T22:28:46.105Z,15.30
2022-09-30T22:31:20.882Z,15.30
2022-09-30T22:34:07.144Z,15.30
2022-09-30T22:36:53.701Z,15.30
2022-09-30T22:39:21.233Z,15.30
2022-09-30T22:41:53.034Z,15.30
2022-09-30T22:44:25.520Z,15.30
2022-09-30T22:46:53.587Z,15.30
2022-09-30T22:49:20.606Z,15.20
2022-09-30T22:51:51.994Z,15.30
2022-09-30T22:54:18.862Z,15.30
2022-09-30T22:56:55.234Z,15.20
2022-09-30T22:59:22.836Z,15.20
2022-09-30T23:01:49.875Z,15.20
2022-09-30T23:04:22.229Z,15.20
2022-09-30T23:06:50.520Z,15.10
2022-09-30T23:09:18.287Z,15.10
2022-09-30T23:11:48.655Z,15.10
2022-09-30T23:14:18.139Z,15.10
2022-09-30T23:16:46.019Z,15.10
2022-09-30T23:19:14.037Z,15.10
2022-09-30T23:21:41.221Z,15.00
2022-09-30T23:24:08.028Z,15.00
2022-09-30T23:26:35.082Z,15.00
2022-09-30T23:29:07.363Z,15.00
2022-09-30T23:31:34.739Z,15.00
2022-09-30T23:34:02.835Z,15.00
2022-09-30T23:36:31.543Z,15.00
2022-09-30T23:39:18.342Z,14.90
2022-09-30T23:41:48.019Z,15.00
2022-09-30T23:44:18.971Z,14.90
2022-09-30T23:47:05.464Z,14.90
2022-09-30T23:49:35.755Z,14.90
2022-09-30T23:52:04.672Z,14.90
2022-09-30T23:54:32.260Z,14.80
2022-09-30T23:56:59.270Z,14.90
2022-09-30T23:59:26.816Z,14.90
